Time;durP1;ratioP1;P1;durP2;ratioP2;P2;SDS_P1;SDS_P2;PMS_P1;PMS_P2;Temp;Humidity;BMP_temperature;BMP_pressure;BME280_temperature;BME280_humidity;BME280_pressure;Samples;Min_cycle;Max_cycle;Signal;HPM_P1;HPM_P2
2023/01/23 00:01:03;;;;;;;44.93;22.85;;;;;;;;;;1919299;75;21038;-57
2023/01/23 00:03:33;;;;;;;50.25;23.32;;;;;;;;;;1917760;74;21018;-58
2023/01/23 00:06:02;;;;;;;47.17;22.85;;;;;;;;;;1919292;73;21111;-58
2023/01/23 00:08:30;;;;;;;45.43;22.70;;;;;;;;;;1919322;75;21094;-57
2023/01/23 00:10:59;;;;;;;51.35;21.25;;;;;;;;;;1919330;75;21019;-57
2023/01/23 00:13:28;;;;;;;44.98;22.73;;;;;;;;;;1919437;75;21101;-57
2023/01/23 00:15:56;;;;;;;53.13;23.75;;;;;;;;;;1919355;75;21091;-57
2023/01/23 00:18:25;;;;;;;46.53;22.05;;;;;;;;;;1919296;74;21092;-58
2023/01/23 00:20:53;;;;;;;58.42;24.92;;;;;;;;;;1919411;75;21018;-57
2023/01/23 00:23:21;;;;;;;45.98;23.07;;;;;;;;;;1919460;75;21092;-57
2023/01/23 00:25:50;;;;;;;54.03;24.30;;;;;;;;;;1919316;75;21054;-57
2023/01/23 00:28:19;;;;;;;54.42;25.20;;;;;;;;;;1919496;75;21014;-58
2023/01/23 00:30:47;;;;;;;44.40;22.50;;;;;;;;;;1919276;75;21051;-58
2023/01/23 00:33:16;;;;;;;46.77;21.07;;;;;;;;;;1919556;75;21022;-57
2023/01/23 00:35:45;;;;;;;48.42;22.50;;;;;;;;;;1919413;75;21019;-57
2023/01/23 00:38:13;;;;;;;43.48;22.02;;;;;;;;;;1919390;75;21068;-57
2023/01/23 00:40:43;;;;;;;44.80;22.75;;;;;;;;;;1919284;75;21026;-58
2023/01/23 00:43:11;;;;;;;52.73;23.47;;;;;;;;;;1919357;75;21081;-57
2023/01/23 00:45:40;;;;;;;50.20;24.02;;;;;;;;;;1919304;75;21139;-57
2023/01/23 00:48:09;;;;;;;53.83;23.47;;;;;;;;;;1919323;74;21042;-57
2023/01/23 00:50:37;;;;;;;52.05;23.65;;;;;;;;;;1919392;75;21011;-57
2023/01/23 00:53:05;;;;;;;54.18;24.18;;;;;;;;;;1919303;75;21065;-57
2023/01/23 00:55:34;;;;;;;55.63;22.90;;;;;;;;;;1919334;75;21015;-57
2023/01/23 00:58:03;;;;;;;46.13;22.60;;;;;;;;;;1919274;75;21096;-57
2023/01/23 01:00:31;;;;;;;43.45;22.98;;;;;;;;;;1919279;73;21139;-57
2023/01/23 01:03:00;;;;;;;51.58;25.85;;;;;;;;;;1919313;75;21069;-57
2023/01/23 01:05:28;;;;;;;54.40;24.43;;;;;;;;;;1919392;74;21007;-57
2023/01/23 01:08:01;;;;;;;45.45;23.57;;;;;;;;;;1946033;73;21484;-57
2023/01/23 01:10:30;;;;;;;45.43;23.45;;;;;;;;;;1949515;73;21034;-57
2023/01/23 01:12:59;;;;;;;48.80;23.25;;;;;;;;;;1950067;73;21460;-57
2023/01/23 01:15:28;;;;;;;46.25;22.58;;;;;;;;;;1950012;73;21060;-57
2023/01/23 01:17:57;;;;;;;42.43;21.48;;;;;;;;;;1950106;73;21061;-57
2023/01/23 01:20:27;;;;;;;43.33;21.70;;;;;;;;;;1949960;73;21046;-57
2023/01/23 01:22:57;;;;;;;49.50;24.07;;;;;;;;;;1950079;73;21092;-57
2023/01/23 01:25:25;;;;;;;43.80;22.42;;;;;;;;;;1950123;73;21015;-58
2023/01/23 01:27:55;;;;;;;46.88;23.70;;;;;;;;;;1950171;73;21132;-58
2023/01/23 01:30:25;;;;;;;46.33;24.23;;;;;;;;;;1950134;73;21010;-57
2023/01/23 01:32:54;;;;;;;47.25;22.25;;;;;;;;;;1950081;73;21530;-57
2023/01/23 01:35:23;;;;;;;47.13;22.32;;;;;;;;;;1950242;73;21034;-58
2023/01/23 01:37:51;;;;;;;40.50;20.75;;;;;;;;;;1950113;73;20999;-57
2023/01/23 01:40:21;;;;;;;51.65;22.13;;;;;;;;;;1950198;73;21046;-58
2023/01/23 01:42:51;;;;;;;50.23;23.67;;;;;;;;;;1950298;73;21010;-57
2023/01/23 01:45:37;;;;;;;55.28;24.82;;;;;;;;;;1950016;73;21019;-57
2023/01/23 01:48:06;;;;;;;59.88;24.50;;;;;;;;;;1950069;73;21023;-57
2023/01/23 01:50:34;;;;;;;59.48;25.75;;;;;;;;;;1950101;73;21006;-57
2023/01/23 01:53:03;;;;;;;52.40;23.45;;;;;;;;;;1950147;73;21042;-57
2023/01/23 01:55:32;;;;;;;61.25;23.98;;;;;;;;;;1950127;73;20986;-57
2023/01/23 01:58:00;;;;;;;49.15;25.00;;;;;;;;;;1950149;73;21135;-58
2023/01/23 02:00:29;;;;;;;47.90;23.02;;;;;;;;;;1950037;73;21195;-57
2023/01/23 02:02:58;;;;;;;50.05;24.45;;;;;;;;;;1950174;73;20995;-57
2023/01/23 02:05:28;;;;;;;61.02;24.50;;;;;;;;;;1950098;73;21088;-58
2023/01/23 02:07:58;;;;;;;53.00;23.83;;;;;;;;;;1924111;73;21492;-57
2023/01/23 02:10:27;;;;;;;51.98;24.65;;;;;;;;;;1960742;73;21002;-57
2023/01/23 02:12:56;;;;;;;50.28;21.48;;;;;;;;;;1960769;73;21027;-57
2023/01/23 02:15:24;;;;;;;46.13;22.48;;;;;;;;;;1960748;73;21006;-58
2023/01/23 02:17:54;;;;;;;50.65;22.25;;;;;;;;;;1960777;73;21080;-58
2023/01/23 02:20:24;;;;;;;49.77;23.38;;;;;;;;;;1960661;73;21083;-57
2023/01/23 02:23:01;;;;;;;51.15;21.93;;;;;;;;;;1960750;73;21065;-57
2023/01/23 02:25:31;;;;;;;38.15;20.37;;;;;;;;;;1960487;73;21054;-57
2023/01/23 02:28:00;;;;;;;39.88;20.20;;;;;;;;;;1960861;73;21085;-57
2023/01/23 02:30:33;;;;;;;46.95;22.35;;;;;;;;;;1960143;73;21528;-57
2023/01/23 02:33:09;;;;;;;50.17;21.25;;;;;;;;;;1960786;73;21002;-58
2023/01/23 02:35:39;;;;;;;54.88;23.73;;;;;;;;;;1960878;73;21018;-57
2023/01/23 02:38:09;;;;;;;60.15;24.35;;;;;;;;;;1960414;73;21066;-58
2023/01/23 02:40:40;;;;;;;55.85;23.77;;;;;;;;;;1960808;73;21014;-58
2023/01/23 02:43:10;;;;;;;367.27;124.65;;;;;;;;;;1960691;73;21068;-58
2023/01/23 02:45:40;;;;;;;62.75;30.00;;;;;;;;;;1960159;73;21132;-58
2023/01/23 02:48:09;;;;;;;64.87;25.27;;;;;;;;;;1960810;73;21088;-57
2023/01/23 02:50:38;;;;;;;78.30;27.13;;;;;;;;;;1960725;73;21003;-58
2023/01/23 02:53:06;;;;;;;65.45;25.05;;;;;;;;;;1960648;73;21092;-57
2023/01/23 02:55:38;;;;;;;86.37;26.50;;;;;;;;;;1960812;73;21018;-57
2023/01/23 03:00:51;;;;;;;98.12;33.55;;;;;;;;;;1960805;73;21550;-58
2023/01/23 03:03:22;;;;;;;96.50;34.33;;;;;;;;;;1960750;73;21030;-57
2023/01/23 03:05:50;;;;;;;81.02;32.13;;;;;;;;;;1960674;73;21065;-57
2023/01/23 03:08:19;;;;;;;73.00;28.42;;;;;;;;;;1954191;73;21115;-57
2023/01/23 03:10:48;;;;;;;80.42;29.55;;;;;;;;;;1950037;73;21010;-57
2023/01/23 03:13:18;;;;;;;118.55;32.28;;;;;;;;;;1950075;73;21097;-57
2023/01/23 03:15:48;;;;;;;117.95;36.90;;;;;;;;;;1950121;73;21002;-57
2023/01/23 03:18:16;;;;;;;95.65;34.73;;;;;;;;;;1950201;73;21530;-57
2023/01/23 03:20:45;;;;;;;128.25;42.50;;;;;;;;;;1949997;73;21030;-57
2023/01/23 03:23:13;;;;;;;133.32;38.90;;;;;;;;;;1950329;73;21072;-57
2023/01/23 03:25:47;;;;;;;81.67;30.23;;;;;;;;;;1950283;73;21023;-57
2023/01/23 03:30:52;;;;;;;106.85;32.58;;;;;;;;;;1883897;73;21073;-57
2023/01/23 03:33:20;;;;;;;110.78;34.78;;;;;;;;;;1950183;73;21034;-57
2023/01/23 03:35:49;;;;;;;96.95;32.25;;;;;;;;;;1950129;73;21018;-57
2023/01/23 03:38:18;;;;;;;92.62;31.70;;;;;;;;;;1950265;73;21088;-57
2023/01/23 03:43:36;;;;;;;71.97;27.67;;;;;;;;;;1950189;73;21026;-57
2023/01/23 03:46:06;;;;;;;76.07;27.67;;;;;;;;;;1950183;73;21018;-57
2023/01/23 03:48:35;;;;;;;92.75;28.70;;;;;;;;;;1950307;73;21011;-58
2023/01/23 03:51:04;;;;;;;88.25;28.12;;;;;;;;;;1950101;73;21152;-57
2023/01/23 03:53:33;;;;;;;98.55;28.42;;;;;;;;;;1950188;73;20975;-57
2023/01/23 03:56:02;;;;;;;79.92;28.75;;;;;;;;;;1950086;73;21031;-57
2023/01/23 03:58:30;;;;;;;92.10;30.68;;;;;;;;;;1950084;73;21301;-57
2023/01/23 04:01:02;;;;;;;86.90;31.35;;;;;;;;;;1950088;73;21007;-57
2023/01/23 04:03:29;;;;;;;90.70;29.55;;;;;;;;;;1949991;73;21042;-57
2023/01/23 04:05:59;;;;;;;81.78;28.02;;;;;;;;;;1950176;73;21084;-57
2023/01/23 04:08:28;;;;;;;81.70;30.50;;;;;;;;;;1950593;73;21112;-57
2023/01/23 04:11:04;;;;;;;69.92;24.52;;;;;;;;;;1951120;73;21065;-57
2023/01/23 04:13:33;;;;;;;62.40;23.32;;;;;;;;;;1951037;73;21038;-58
2023/01/23 04:16:02;;;;;;;77.30;26.55;;;;;;;;;;1951034;73;21074;-58
2023/01/23 04:18:30;;;;;;;60.08;23.02;;;;;;;;;;1951086;73;21030;-58
2023/01/23 04:20:59;;;;;;;69.80;22.17;;;;;;;;;;1951038;73;21088;-58
2023/01/23 04:23:28;;;;;;;74.53;22.58;;;;;;;;;;1951197;73;21022;-59
2023/01/23 04:25:57;;;;;;;60.28;21.55;;;;;;;;;;1951031;73;21144;-59
2023/01/23 04:28:26;;;;;;;57.65;22.98;;;;;;;;;;1951086;73;21080;-58
2023/01/23 04:30:55;;;;;;;46.77;22.93;;;;;;;;;;1951035;73;21027;-58
2023/01/23 04:33:28;;;;;;;57.23;24.18;;;;;;;;;;1950502;73;21063;-59
2023/01/23 04:35:58;;;;;;;71.72;26.37;;;;;;;;;;1950910;73;21078;-58
2023/01/23 04:38:27;;;;;;;68.90;25.88;;;;;;;;;;1921722;73;21031;-58
2023/01/23 04:40:56;;;;;;;67.58;24.77;;;;;;;;;;1951019;73;21092;-59
2023/01/23 04:43:25;;;;;;;72.58;24.77;;;;;;;;;;1951036;73;21082;-59
2023/01/23 04:45:55;;;;;;;90.57;25.70;;;;;;;;;;1951077;73;21003;-58
2023/01/23 04:48:37;;;;;;;113.03;48.40;;;;;;;;;;1947512;73;21057;-59
2023/01/23 04:51:06;;;;;;;154.97;41.00;;;;;;;;;;1951328;73;21013;-58
2023/01/23 04:53:35;;;;;;;67.37;27.77;;;;;;;;;;1951324;73;20979;-59
2023/01/23 04:56:04;;;;;;;59.70;25.12;;;;;;;;;;1951209;73;20978;-58
2023/01/23 04:58:33;;;;;;;65.12;23.18;;;;;;;;;;1951195;73;21171;-58
2023/01/23 05:01:04;;;;;;;74.27;23.85;;;;;;;;;;1951112;73;21026;-58
2023/01/23 05:03:34;;;;;;;68.55;24.85;;;;;;;;;;1951105;73;21023;-59
2023/01/23 05:06:03;;;;;;;71.02;22.93;;;;;;;;;;1951096;73;21030;-58
2023/01/23 05:08:32;;;;;;;105.47;24.85;;;;;;;;;;1941660;73;21046;-59
2023/01/23 05:11:11;;;;;;;83.27;27.27;;;;;;;;;;1916641;75;21033;-58
2023/01/23 05:13:40;;;;;;;74.15;27.25;;;;;;;;;;1919339;75;21010;-59
2023/01/23 05:16:09;;;;;;;60.48;24.92;;;;;;;;;;1919319;75;21026;-58
2023/01/23 05:18:39;;;;;;;123.42;36.98;;;;;;;;;;1914418;75;21002;-58
2023/01/23 05:21:08;;;;;;;67.12;27.05;;;;;;;;;;1919262;75;20994;-58
2023/01/23 05:23:37;;;;;;;94.60;29.63;;;;;;;;;;1919213;74;21010;-58
2023/01/23 05:26:05;;;;;;;118.08;31.30;;;;;;;;;;1919286;75;21095;-58
2023/01/23 05:28:33;;;;;;;80.47;27.75;;;;;;;;;;1919211;75;21084;-58
2023/01/23 05:31:02;;;;;;;59.65;24.65;;;;;;;;;;1919104;75;21077;-58
2023/01/23 05:33:32;;;;;;;73.80;26.57;;;;;;;;;;1917600;75;21018;-58
2023/01/23 05:36:01;;;;;;;74.65;25.70;;;;;;;;;;1919103;75;21096;-58
2023/01/23 05:38:29;;;;;;;116.97;43.17;;;;;;;;;;1919235;74;21092;-58
2023/01/23 05:40:59;;;;;;;127.65;31.33;;;;;;;;;;1919312;75;21043;-59
2023/01/23 05:43:29;;;;;;;81.95;29.55;;;;;;;;;;1855119;75;21033;-58
2023/01/23 05:46:02;;;;;;;91.15;30.82;;;;;;;;;;1915533;75;21514;-58
2023/01/23 05:48:34;;;;;;;77.85;27.42;;;;;;;;;;1909371;73;21062;-58
2023/01/23 05:51:05;;;;;;;76.53;28.52;;;;;;;;;;1918116;75;21038;-59
2023/01/23 05:53:33;;;;;;;53.05;27.30;;;;;;;;;;1919099;75;21120;-58
2023/01/23 05:56:06;;;;;;;60.70;26.35;;;;;;;;;;1919134;75;21066;-58
2023/01/23 05:58:36;;;;;;;107.55;30.95;;;;;;;;;;1918797;73;21523;-58
2023/01/23 06:01:15;;;;;;;100.47;30.17;;;;;;;;;;1818113;79;21244;-58
2023/01/23 06:04:02;;;;;;;175.90;40.75;;;;;;;;;;1919203;75;21069;-58
2023/01/23 06:06:38;;;;;;;146.98;51.60;;;;;;;;;;1916197;75;21030;-58
2023/01/23 06:09:06;;;;;;;87.20;29.80;;;;;;;;;;1919296;73;21054;-58
2023/01/23 06:11:35;;;;;;;104.03;27.80;;;;;;;;;;1919097;75;21099;-59
2023/01/23 06:14:05;;;;;;;109.75;34.60;;;;;;;;;;1919230;75;21030;-58
2023/01/23 06:16:34;;;;;;;64.47;29.02;;;;;;;;;;1919179;75;21100;-58
2023/01/23 06:19:03;;;;;;;113.70;31.60;;;;;;;;;;1919091;73;21076;-59
2023/01/23 06:21:32;;;;;;;104.40;28.55;;;;;;;;;;1919103;75;21003;-58
2023/01/23 06:24:02;;;;;;;89.65;30.32;;;;;;;;;;1919219;74;21167;-59
2023/01/23 06:26:31;;;;;;;84.28;26.73;;;;;;;;;;1919264;75;21084;-58
2023/01/23 06:28:59;;;;;;;47.78;24.70;;;;;;;;;;1919163;73;20978;-59
2023/01/23 06:31:31;;;;;;;110.65;29.72;;;;;;;;;;1919289;75;21026;-59
2023/01/23 06:33:59;;;;;;;69.30;26.93;;;;;;;;;;1919246;75;21030;-58
2023/01/23 06:36:30;;;;;;;80.42;32.33;;;;;;;;;;1918700;74;21072;-59
2023/01/23 06:38:59;;;;;;;69.53;29.23;;;;;;;;;;1919372;75;21464;-59
2023/01/23 06:41:29;;;;;;;89.15;29.37;;;;;;;;;;1918097;75;21018;-58
2023/01/23 06:43:59;;;;;;;73.05;27.40;;;;;;;;;;1918667;75;21045;-58
2023/01/23 06:46:28;;;;;;;82.33;29.85;;;;;;;;;;1919290;75;21010;-58
2023/01/23 06:48:57;;;;;;;79.97;34.23;;;;;;;;;;1919235;75;21018;-58
2023/01/23 06:51:25;;;;;;;58.63;25.43;;;;;;;;;;1919093;75;21053;-58
2023/01/23 06:53:55;;;;;;;58.10;27.35;;;;;;;;;;1919188;75;21105;-58
2023/01/23 06:56:23;;;;;;;69.60;28.50;;;;;;;;;;1919158;75;21014;-58
2023/01/23 06:58:52;;;;;;;66.35;26.62;;;;;;;;;;1919386;75;21074;-58
2023/01/23 07:01:23;;;;;;;84.03;27.85;;;;;;;;;;1918479;75;21061;-58
2023/01/23 07:03:53;;;;;;;73.52;27.52;;;;;;;;;;1914827;75;21057;-58
2023/01/23 07:06:21;;;;;;;61.95;28.92;;;;;;;;;;1919314;75;21010;-58
2023/01/23 07:08:50;;;;;;;70.55;25.92;;;;;;;;;;1920207;73;21069;-57
2023/01/23 07:11:19;;;;;;;63.10;27.73;;;;;;;;;;1950062;73;21031;-58
2023/01/23 07:13:47;;;;;;;60.00;26.35;;;;;;;;;;1950127;73;20978;-58
2023/01/23 07:16:16;;;;;;;69.72;28.85;;;;;;;;;;1949998;73;21051;-58
2023/01/23 07:18:45;;;;;;;68.85;27.17;;;;;;;;;;1949983;73;21034;-58
2023/01/23 07:21:14;;;;;;;53.40;26.15;;;;;;;;;;1949999;73;21014;-59
2023/01/23 07:23:42;;;;;;;67.78;26.30;;;;;;;;;;1949995;73;21538;-58
2023/01/23 07:26:11;;;;;;;58.95;27.67;;;;;;;;;;1950037;73;21026;-59
2023/01/23 07:45:42;;;;;;;68.10;29.50;;;4.00;85.30;;;;;;1980552;72;27970;-46
2023/01/23 07:48:11;;;;;;;62.75;28.98;;;4.60;87.20;;;;;;1955442;73;21045;-46
2023/01/23 07:50:40;;;;;;;69.87;28.30;;;4.60;87.40;;;;;;1955388;73;21034;-44
2023/01/23 07:53:09;;;;;;;62.38;28.92;;;4.50;86.50;;;;;;1955429;73;21022;-47
2023/01/23 07:55:38;;;;;;;68.20;29.48;;;4.40;86.00;;;;;;1955380;73;21064;-47
2023/01/23 07:58:07;;;;;;;63.92;27.32;;;4.30;86.30;;;;;;1955506;73;21006;-47
2023/01/23 08:00:36;;;;;;;69.97;28.35;;;4.30;86.00;;;;;;1955419;73;21026;-47
2023/01/23 08:03:05;;;;;;;59.90;27.58;;;4.20;86.10;;;;;;1955359;73;21096;-47
2023/01/23 08:05:34;;;;;;;46.00;21.07;;;4.20;86.10;;;;;;1955509;73;21088;-47
2023/01/23 08:08:03;;;;;;;53.98;24.60;;;4.10;86.20;;;;;;1955436;73;21448;-48
2023/01/23 08:10:33;;;;;;;55.40;25.48;;;4.00;86.30;;;;;;1955402;73;21081;-47
2023/01/23 08:13:03;;;;;;;65.85;27.25;;;3.80;86.20;;;;;;1954254;73;21099;-44
2023/01/23 08:15:32;;;;;;;69.37;25.72;;;3.80;87.20;;;;;;1955471;73;21077;-46
2023/01/23 08:18:01;;;;;;;61.08;25.45;;;3.70;87.20;;;;;;1955643;73;21034;-44
2023/01/23 08:20:30;;;;;;;56.90;23.92;;;3.70;86.90;;;;;;1955384;73;21078;-45
2023/01/23 08:23:00;;;;;;;57.70;25.60;;;3.70;87.10;;;;;;1955343;73;21034;-44
2023/01/23 08:25:30;;;;;;;56.60;26.80;;;3.80;87.20;;;;;;1955473;73;21006;-47
2023/01/23 08:27:59;;;;;;;63.65;26.17;;;3.80;87.20;;;;;;1954208;73;21116;-52
2023/01/23 08:30:28;;;;;;;62.48;27.40;;;3.90;87.00;;;;;;1954890;73;21038;-49
2023/01/23 08:32:57;;;;;;;59.95;27.07;;;3.90;87.00;;;;;;1955122;73;21033;-53
2023/01/23 08:35:26;;;;;;;54.15;25.48;;;3.90;86.50;;;;;;1954826;73;21057;-63
2023/01/23 08:37:55;;;;;;;62.38;26.48;;;3.80;86.70;;;;;;1952904;73;21077;-49
2023/01/23 08:40:24;;;;;;;46.65;22.27;;;3.90;87.00;;;;;;1944844;73;21080;-47
2023/01/23 08:42:54;;;;;;;42.43;20.48;;;3.90;86.80;;;;;;1935805;73;21014;-45
2023/01/23 08:45:24;;;;;;;47.13;22.10;;;3.90;87.10;;;;;;1953286;73;21206;-45
2023/01/23 08:47:53;;;;;;;46.75;21.40;;;3.80;87.00;;;;;;1948846;73;21115;-45
2023/01/23 08:50:22;;;;;;;46.68;20.32;;;3.80;87.00;;;;;;1942539;73;21012;-45
2023/01/23 08:52:51;;;;;;;54.13;23.42;;;3.80;87.80;;;;;;1964689;72;21525;-44
2023/01/23 08:55:20;;;;;;;50.10;22.48;;;3.70;87.70;;;;;;1946448;73;21096;-47
2023/01/23 08:57:49;;;;;;;40.80;21.20;;;3.70;87.70;;;;;;1941059;73;21478;-44
2023/01/23 09:00:19;;;;;;;34.05;16.90;;;3.70;88.20;;;;;;1937589;73;21023;-45
2023/01/23 09:02:48;;;;;;;37.25;19.90;;;3.60;88.30;;;;;;1947086;73;21006;-46
2023/01/23 09:05:17;;;;;;;48.55;20.65;;;3.50;88.20;;;;;;1947534;73;21014;-46
2023/01/23 09:07:47;;;;;;;44.73;21.42;;;3.40;88.40;;;;;;1945785;73;21064;-47
2023/01/23 09:10:16;;;;;;;52.78;21.15;;;3.40;88.60;;;;;;1940509;73;21053;-46
2023/01/23 09:12:45;;;;;;;30.65;16.17;;;3.40;88.50;;;;;;1949953;73;21009;-50
2023/01/23 09:15:14;;;;;;;45.25;19.77;;;3.40;89.00;;;;;;1950805;73;21087;-48
2023/01/23 09:17:44;;;;;;;48.83;21.10;;;3.30;89.10;;;;;;1953087;73;21021;-47
2023/01/23 09:20:14;;;;;;;46.58;20.68;;;3.20;88.90;;;;;;1962208;73;21151;-46
2023/01/23 09:22:43;;;;;;;40.67;19.82;;;3.30;89.00;;;;;;1962341;73;21037;-46
2023/01/23 09:25:14;;;;;;;36.38;18.35;;;3.30;88.70;;;;;;1962143;73;21097;-47
2023/01/23 09:27:43;;;;;;;19.87;10.20;;;3.40;89.20;;;;;;1956031;73;21081;-47
2023/01/23 09:30:13;;;;;;;34.25;14.33;;;3.40;89.70;;;;;;1954442;73;21037;-45
2023/01/23 09:32:43;;;;;;;23.40;12.65;;;3.30;89.10;;;;;;1955191;73;21077;-60
2023/01/23 09:35:12;;;;;;;35.43;18.45;;;3.30;89.60;;;;;;1935047;73;21731;-51
2023/01/23 09:38:03;;;;;;;20.82;9.88;;;3.10;90.10;;;;;;1955207;73;21127;-54
2023/01/23 09:40:42;;;;;;;37.90;16.52;;;3.00;90.30;;;;;;1955520;73;21198;-54
2023/01/23 09:43:18;;;;;;;25.82;15.88;;;3.00;90.10;;;;;;1948541;73;21072;-54
2023/01/23 09:46:00;;;;;;;50.15;22.37;;;2.90;90.10;;;;;;1905969;72;21560;-56
2023/01/23 09:48:35;;;;;;;21.23;12.30;;;3.00;90.30;;;;;;1957663;73;21085;-53
2023/01/23 09:51:28;;;;;;;46.83;19.80;;;3.00;90.20;;;;;;1931366;74;21013;-54
2023/01/23 09:54:00;;;;;;;38.33;20.17;;;3.00;90.20;;;;;;1903783;74;21044;-58
2023/01/23 09:56:32;;;;;;;34.03;14.33;;;3.10;90.10;;;;;;1901407;75;21047;-53
2023/01/23 09:59:19;;;;;;;30.02;16.52;;;3.10;90.20;;;;;;1902122;73;21598;-52
2023/01/23 10:01:48;;;;;;;44.08;18.62;;;3.10;90.10;;;;;;1896127;75;21269;-53
2023/01/23 10:04:19;;;;;;;34.83;16.52;;;3.10;90.20;;;;;;1900972;75;21161;-57
2023/01/23 10:07:00;;;;;;;43.45;19.42;;;3.20;90.10;;;;;;1910291;74;21010;-51
2023/01/23 10:09:49;;;;;;;39.88;18.92;;;3.30;89.80;;;;;;1922913;74;21026;-53
2023/01/23 10:12:43;;;;;;;38.13;19.07;;;3.40;90.00;;;;;;1923506;74;21090;-55
2023/01/23 10:15:59;;;;;;;51.75;21.00;;;3.60;89.30;;;;;;1942779;73;22191;-55
2023/01/23 10:18:47;;;;;;;40.28;19.45;;;3.70;89.90;;;;;;1922680;73;21056;-52
2023/01/23 10:21:40;;;;;;;36.98;18.73;;;3.90;89.50;;;;;;1924014;73;21083;-46
2023/01/23 10:24:35;;;;;;;41.00;20.43;;;3.90;89.10;;;;;;1920123;73;21087;-46
2023/01/23 10:27:15;;;;;;;39.53;18.82;;;3.90;88.70;;;;;;1912761;75;21097;-46
2023/01/23 10:30:05;;;;;;;32.63;15.55;;;3.90;88.90;;;;;;1914158;75;21124;-47
2023/01/23 10:32:39;;;;;;;36.17;18.17;;;4.00;89.20;;;;;;1917454;73;21098;-45
2023/01/23 10:35:19;;;;;;;45.38;21.55;;;4.00;89.20;;;;;;1919700;73;21469;-45
2023/01/23 10:38:03;;;;;;;29.25;13.90;;;4.00;88.80;;;;;;1920626;73;21062;-44
2023/01/23 10:43:21;;;;;;;40.43;18.42;;;4.10;88.90;;;;;;1915480;73;21160;-45
2023/01/23 10:45:50;;;;;;;35.80;17.95;;;4.10;88.80;;;;;;1921900;73;21102;-47
2023/01/23 10:48:45;;;;;;;44.65;18.75;;;4.20;89.20;;;;;;1920489;73;21146;-45
2023/01/23 10:51:36;;;;;;;49.90;21.48;;;4.30;89.40;;;;;;1916827;74;21086;-48
2023/01/23 10:54:11;;;;;;;39.95;20.27;;;4.50;89.00;;;;;;1914752;75;21453;-47
2023/01/23 10:56:43;;;;;;;39.65;19.25;;;4.60;88.90;;;;;;1921673;75;21097;-46
2023/01/23 10:59:21;;;;;;;44.88;21.33;;;4.70;88.70;;;;;;1921205;75;21139;-46
2023/01/23 11:02:01;;;;;;;37.38;19.82;;;4.80;88.50;;;;;;1880250;75;21118;-48
2023/01/23 11:04:33;;;;;;;43.42;19.67;;;5.00;88.50;;;;;;1936540;73;21605;-46
2023/01/23 11:07:20;;;;;;;41.55;20.65;;;;;;;;;;1937576;73;21143;-45
2023/01/23 11:09:59;;;;;;;44.90;19.07;;;;;;;;;;1927657;73;21080;-45
2023/01/23 11:12:32;;;;;;;45.67;20.85;;;;;;;;;;1924493;73;21091;-45
2023/01/23 11:15:18;;;;;;;45.55;21.75;;;;;;;;;;1908471;73;21222;-44
2023/01/23 11:17:48;;;;;;;38.02;17.75;;;;;;;;;;1914014;74;21425;-45
2023/01/23 11:20:27;;;;;;;38.53;19.98;;;;;;;;;;1901890;75;21086;-45
2023/01/23 11:23:12;;;;;;;44.08;20.12;;;;;;;;;;1902519;74;21001;-44
2023/01/23 11:25:48;;;;;;;47.80;20.72;;;;;;;;;;1907210;74;20996;-45
2023/01/23 11:28:29;;;;;;;41.90;18.32;;;;;;;;;;1904607;75;21014;-45
2023/01/23 11:30:56;;;;;;;43.60;20.52;;;;;;;;;;1903187;74;22150;-45
2023/01/23 11:33:28;;;;;;;37.17;20.50;;;;;;;;;;1904751;75;21019;-46
2023/01/23 11:36:07;;;;;;;42.75;18.42;;;;;;;;;;1903067;74;21102;-54
2023/01/23 11:38:43;;;;;;;48.17;21.33;;;;;;;;;;1901028;75;21134;-44
2023/01/23 11:41:12;;;;;;;45.08;20.57;;;;;;;;;;1899432;75;21150;-45
2023/01/23 11:43:41;;;;;;;38.95;19.52;;;;;;;;;;1900407;75;21169;-45
2023/01/23 11:46:28;;;;;;;46.33;20.08;;;;;;;;;;1900376;75;21345;-46
2023/01/23 11:48:58;;;;;;;38.35;19.23;;;;;;;;;;1900332;75;21455;-44
2023/01/23 11:51:27;;;;;;;37.78;18.42;;;;;;;;;;1900375;75;21068;-44
2023/01/23 11:54:03;;;;;;;35.03;18.00;;;;;;;;;;1900135;75;21131;-45
2023/01/23 11:56:45;;;;;;;31.30;16.90;;;;;;;;;;1902180;75;21056;-44
2023/01/23 11:59:21;;;;;;;39.92;20.72;;;;;;;;;;1901015;75;21016;-45
2023/01/23 12:01:51;;;;;;;43.65;19.05;;;;;;;;;;1902245;75;21057;-46
2023/01/23 12:04:33;;;;;;;35.80;18.48;;;;;;;;;;1901137;75;21044;-46
2023/01/23 12:07:19;;;;;;;32.70;17.35;;;;;;;;;;1902319;75;21012;-45
2023/01/23 12:09:52;;;;;;;39.13;17.85;;;;;;;;;;1902083;75;21059;-45
2023/01/23 12:12:34;;;;;;;38.30;19.40;;;;;;;;;;1901680;75;21102;-46
2023/01/23 12:15:04;;;;;;;28.90;17.00;;;;;;;;;;1900743;75;21088;-45
2023/01/23 12:17:34;;;;;;;43.42;19.23;;;;;;;;;;1902097;75;21076;-48
2023/01/23 12:20:20;;;;;;;37.13;18.80;;;;;;;;;;1902119;75;21040;-45
2023/01/23 12:22:54;;;;;;;33.15;16.90;;;;;;;;;;1901594;75;21125;-45
2023/01/23 12:25:24;;;;;;;34.73;18.20;;;;;;;;;;1900691;75;21086;-47
2023/01/23 12:27:56;;;;;;;38.45;19.30;;;;;;;;;;1893052;75;21110;-47
2023/01/23 12:30:25;;;;;;;34.43;17.32;;;;;;;;;;1893529;75;21005;-47
2023/01/23 12:33:08;;;;;;;42.80;20.77;;;;;;;;;;1902144;75;21094;-45
2023/01/23 12:35:37;;;;;;;38.10;16.97;;;;;;;;;;1900520;75;21036;-45
2023/01/23 12:38:16;;;;;;;32.40;17.73;;;;;;;;;;1901206;75;21017;-45
2023/01/23 12:40:46;;;;;;;41.50;20.27;;;;;;;;;;1901228;75;21049;-47
2023/01/23 12:43:28;;;;;;;45.12;20.45;;;;;;;;;;1883313;75;21133;-47
2023/01/23 12:45:58;;;;;;;50.40;20.70;;;;;;;;;;1902193;75;21013;-45
2023/01/23 12:48:34;;;;;;;35.83;18.30;;;;;;;;;;1902232;75;20988;-45
2023/01/23 12:51:11;;;;;;;32.17;18.12;;;;;;;;;;1900641;75;21044;-46
2023/01/23 12:53:40;;;;;;;36.65;19.05;;;;;;;;;;1901327;75;21041;-46
2023/01/23 12:56:16;;;;;;;36.83;18.17;;;;;;;;;;1902296;75;21009;-46
2023/01/23 12:58:46;;;;;;;35.13;18.50;;;;;;;;;;1902326;75;21071;-46
2023/01/23 13:01:31;;;;;;;40.08;18.00;;;;;;;;;;1901038;75;21458;-45
2023/01/23 13:04:04;;;;;;;38.40;18.87;;;;;;;;;;1901044;75;21052;-47
2023/01/23 13:06:53;;;;;;;37.73;17.35;;;;;;;;;;1902321;75;21076;-45
2023/01/23 13:09:29;;;;;;;35.20;18.82;;;;;;;;;;1902227;75;21064;-46
2023/01/23 13:11:59;;;;;;;36.03;18.75;;;;;;;;;;1902364;75;21478;-47
2023/01/23 13:14:32;;;;;;;43.10;18.82;;;;;;;;;;1902167;75;21021;-45
2023/01/23 13:17:03;;;;;;;33.73;18.55;;;;;;;;;;1902141;75;21032;-45
2023/01/23 13:22:26;;;;;;;31.68;17.12;;;;;;;;;;1902131;75;21040;-45
2023/01/23 13:25:12;;;;;;;38.20;20.65;;;;;;;;;;1901620;75;21017;-44
2023/01/23 13:27:46;;;;;;;38.70;18.55;;;;;;;;;;1902172;75;21106;-45
2023/01/23 13:30:25;;;;;;;30.80;15.85;;;;;;;;;;1902199;75;21037;-44
2023/01/23 13:32:56;;;;;;;36.60;16.62;;;;;;;;;;1902171;75;21099;-45
2023/01/23 13:35:48;;;;;;;35.73;17.17;;;;;;;;;;1901296;75;21114;-45
2023/01/23 13:38:25;;;;;;;31.30;17.07;;;;;;;;;;1900903;75;21025;-46
2023/01/23 13:41:04;;;;;;;33.28;17.75;;;;;;;;;;1902156;75;21102;-45
2023/01/23 13:43:52;;;;;;;28.57;14.58;;;;;;;;;;1902085;75;21158;-46
2023/01/23 13:46:27;;;;;;;30.25;15.28;;;;;;;;;;1902151;75;20992;-45
2023/01/23 13:51:48;;;;;;;32.78;17.95;;;;;;;;;;1902384;75;21487;-44
2023/01/23 13:57:06;;;;;;;30.20;15.80;;;;;;;;;;1902189;75;21097;-45
2023/01/23 13:59:43;;;;;;;37.50;17.10;;;;;;;;;;1902209;75;21106;-45
2023/01/23 14:05:25;;;;;;;33.00;16.15;;;;;;;;;;1902339;75;21111;-45
2023/01/23 14:07:54;;;;;;;29.75;15.23;;;;;;;;;;1897549;75;21106;-46
2023/01/23 14:10:24;;;;;;;32.25;15.10;;;;;;;;;;1901362;75;21072;-45
2023/01/23 14:13:09;;;;;;;31.25;17.07;;;;;;;;;;1901628;75;21138;-45
2023/01/23 14:18:34;;;;;;;36.58;16.97;;;;;;;;;;1902329;75;20439;-46
2023/01/23 14:21:22;;;;;;;39.53;18.52;;;;;;;;;;1901260;75;21485;-45
2023/01/23 14:23:56;;;;;;;35.28;17.65;;;;;;;;;;1902147;75;21095;-46
2023/01/23 14:26:26;;;;;;;41.90;18.52;;;;;;;;;;1901835;75;21053;-46
2023/01/23 14:28:56;;;;;;;53.05;19.23;;;;;;;;;;1902275;75;21021;-46
2023/01/23 14:31:25;;;;;;;58.10;19.55;;;;;;;;;;1902177;75;21037;-45
2023/01/23 14:34:01;;;;;;;47.70;16.87;;;;;;;;;;1902148;75;21017;-45
2023/01/23 14:36:30;;;;;;;45.25;16.82;;;;;;;;;;1902117;75;21096;-45
2023/01/23 14:39:00;;;;;;;64.50;20.45;;;;;;;;;;1902122;75;21110;-47
2023/01/23 14:41:29;;;;;;;33.13;17.57;;;;;;;;;;1902150;75;21016;-45
2023/01/23 14:43:58;;;;;;;50.85;18.92;;;;;;;;;;1902113;75;21045;-45
2023/01/23 14:46:39;;;;;;;49.08;19.30;;;;;;;;;;1902080;75;21045;-45
2023/01/23 14:49:09;;;;;;;84.45;24.75;;;;;;;;;;1902146;75;21048;-46
2023/01/23 14:51:37;;;;;;;75.32;21.75;;;;;;;;;;1902167;75;21082;-45
2023/01/23 14:54:07;;;;;;;59.48;22.80;;;;;;;;;;1902238;75;21017;-45
2023/01/23 14:56:37;;;;;;;66.07;23.02;;;;;;;;;;1900513;75;21016;-45
2023/01/23 14:59:07;;;;;;;56.60;23.27;;;;;;;;;;1902201;75;21039;-46
2023/01/23 15:01:35;;;;;;;64.37;28.50;;;;;;;;;;1902133;75;21544;-45